Time;durP1;ratioP1;P1;durP2;ratioP2;P2;SDS_P1;SDS_P2;PMS_P1;PMS_P2;Temp;Humidity;BMP_temperature;BMP_pressure;BME280_temperature;BME280_humidity;BME280_pressure;Samples;Min_cycle;Max_cycle;Signal;HPM_P1;HPM_P2
2022/06/23 00:01:09;;;;;;;3.17;1.00;;;15.40;83.80;;;;;;4192129;28;20118;-67
2022/06/23 00:03:19;;;;;;;2.72;1.50;;;15.40;84.00;;;;;;4193156;28;20040;-62
2022/06/23 00:05:24;;;;;;;1.48;1.05;;;15.40;84.10;;;;;;4192175;28;20446;-65
2022/06/23 00:07:32;;;;;;;4.78;1.20;;;15.40;84.00;;;;;;4205978;28;20036;-62
2022/06/23 00:09:34;;;;;;;1.90;1.10;;;15.30;84.00;;;;;;4208886;28;20098;-65
2022/06/23 00:11:35;;;;;;;2.47;1.20;;;15.30;84.10;;;;;;4209582;28;20040;-66
2022/06/23 00:13:37;;;;;;;3.25;1.10;;;15.30;84.20;;;;;;4208164;28;20082;-62
2022/06/23 00:15:42;;;;;;;3.17;1.40;;;15.30;84.40;;;;;;4210304;28;20432;-65
2022/06/23 00:17:55;;;;;;;3.97;0.70;;;15.20;84.50;;;;;;4206720;28;20036;-63
2022/06/23 00:20:02;;;;;;;4.13;1.50;;;15.10;84.90;;;;;;4209739;28;20036;-63
2022/06/23 00:22:03;;;;;;;4.15;1.48;;;15.10;84.90;;;;;;4208210;28;20044;-63
2022/06/23 00:24:15;;;;;;;2.88;1.45;;;15.10;85.10;;;;;;4207759;28;20028;-61
2022/06/23 00:26:26;;;;;;;3.40;1.38;;;15.00;85.30;;;;;;4208077;28;20032;-68
2022/06/23 00:28:32;;;;;;;4.65;1.48;;;15.00;85.60;;;;;;4209311;28;20044;-63
2022/06/23 00:30:39;;;;;;;3.25;1.13;;;15.00;85.70;;;;;;4207921;28;20536;-63
2022/06/23 00:32:40;;;;;;;3.30;1.55;;;15.00;86.10;;;;;;4209395;28;20028;-63
2022/06/23 00:34:50;;;;;;;5.28;1.30;;;14.90;86.00;;;;;;4205975;28;20016;-63
2022/06/23 00:36:52;;;;;;;4.85;1.40;;;14.90;86.20;;;;;;4209487;28;20028;-64
2022/06/23 00:38:53;;;;;;;3.33;1.33;;;14.80;86.20;;;;;;4208105;28;20113;-67
2022/06/23 00:40:57;;;;;;;5.25;1.42;;;14.80;86.20;;;;;;4209161;28;20044;-68
2022/06/23 00:43:02;;;;;;;7.03;1.20;;;14.80;86.20;;;;;;4207718;28;20409;-63
2022/06/23 00:45:20;;;;;;;6.65;1.58;;;14.70;86.20;;;;;;4209608;28;20040;-63
2022/06/23 00:47:31;;;;;;;1.48;0.90;;;14.70;86.90;;;;;;4207782;28;20036;-62
2022/06/23 00:49:59;;;;;;;2.70;1.60;;;14.70;86.80;;;;;;4176529;28;20051;-66
2022/06/23 00:52:13;;;;;;;1.50;1.33;;;14.70;87.00;;;;;;4174864;28;20041;-68
2022/06/23 00:54:22;;;;;;;2.05;1.10;;;14.70;86.80;;;;;;4175370;28;20033;-68
2022/06/23 00:56:32;;;;;;;3.13;1.17;;;14.70;86.70;;;;;;4174734;28;20036;-64
2022/06/23 00:58:45;;;;;;;1.83;1.20;;;14.70;86.60;;;;;;4176103;28;20102;-63
2022/06/23 01:00:52;;;;;;;4.80;1.33;;;14.70;86.90;;;;;;4189877;28;20071;-64
2022/06/23 01:03:18;;;;;;;1.87;1.50;;;14.70;86.80;;;;;;4192685;28;20078;-67
2022/06/23 01:05:29;;;;;;;1.80;1.00;;;14.80;87.20;;;;;;4191325;28;20032;-63
2022/06/23 01:07:52;;;;;;;4.47;1.15;;;14.70;86.80;;;;;;4192420;28;20632;-64
2022/06/23 01:10:03;;;;;;;1.92;1.10;;;14.70;87.70;;;;;;4191019;28;20041;-67
2022/06/23 01:12:41;;;;;;;4.63;1.10;;;14.60;87.10;;;;;;4192091;28;20040;-63
2022/06/23 01:14:51;;;;;;;1.45;0.80;;;14.60;87.40;;;;;;4193274;28;20044;-64
2022/06/23 01:17:13;;;;;;;3.80;1.13;;;14.60;87.30;;;;;;4208598;28;20551;-66
2022/06/23 01:19:41;;;;;;;3.92;1.73;;;14.60;87.50;;;;;;4201886;28;20089;-67
2022/06/23 01:21:47;;;;;;;3.13;1.38;;;14.50;87.70;;;;;;4189942;28;20122;-65
2022/06/23 01:24:25;;;;;;;1.97;1.40;;;14.50;87.40;;;;;;4191956;28;20102;-64
2022/06/23 01:26:53;;;;;;;3.63;1.20;;;14.50;88.30;;;;;;4191301;28;20028;-66
2022/06/23 01:29:12;;;;;;;3.37;1.10;;;14.40;88.70;;;;;;4192808;28;20364;-66
2022/06/23 01:31:25;;;;;;;3.53;1.80;;;14.40;88.40;;;;;;4190529;28;20036;-64
2022/06/23 01:33:52;;;;;;;4.85;1.20;;;14.30;88.30;;;;;;4191575;28;20037;-64
2022/06/23 01:36:07;;;;;;;3.80;1.83;;;14.30;89.80;;;;;;4189674;28;20036;-64
2022/06/23 01:38:22;;;;;;;2.70;1.13;;;14.30;88.80;;;;;;4190680;28;20071;-63
2022/06/23 01:40:29;;;;;;;6.50;1.53;;;14.30;88.80;;;;;;4190210;28;20106;-68
2022/06/23 01:42:38;;;;;;;1.33;1.00;;;14.30;88.50;;;;;;4191326;28;20479;-64
2022/06/23 01:44:53;;;;;;;3.65;0.98;;;14.30;88.50;;;;;;4189763;28;20028;-63
2022/06/23 01:46:58;;;;;;;1.53;0.83;;;14.30;88.70;;;;;;4191095;28;20106;-64
2022/06/23 01:49:23;;;;;;;2.60;1.40;;;14.30;88.50;;;;;;4189659;28;20032;-66
2022/06/23 01:51:32;;;;;;;2.77;1.20;;;14.30;88.80;;;;;;4191193;28;20033;-64
2022/06/23 01:53:34;;;;;;;3.25;1.17;;;14.30;88.50;;;;;;4191856;28;20078;-70
2022/06/23 01:56:07;;;;;;;2.30;0.98;;;14.30;88.50;;;;;;4193452;28;20037;-63
2022/06/23 01:58:10;;;;;;;1.97;1.00;;;14.30;89.00;;;;;;4190560;28;20546;-62
2022/06/23 02:00:15;;;;;;;3.33;0.83;;;14.30;88.40;;;;;;4190611;28;20040;-67
2022/06/23 02:02:50;;;;;;;1.20;0.90;;;14.30;88.40;;;;;;4190719;28;20480;-69
2022/06/23 02:05:18;;;;;;;2.87;0.93;;;14.30;88.70;;;;;;4190125;28;20024;-64
2022/06/23 02:07:41;;;;;;;0.80;0.73;;;14.30;89.40;;;;;;4191331;28;20033;-64
2022/06/23 02:09:47;;;;;;;2.00;1.10;;;14.30;88.80;;;;;;4173173;28;20110;-63
2022/06/23 02:11:51;;;;;;;2.97;1.27;;;14.30;88.50;;;;;;4174799;28;20048;-64
2022/06/23 02:14:11;;;;;;;5.33;2.00;;;14.30;88.50;;;;;;4190906;28;20047;-64
2022/06/23 02:16:25;;;;;;;2.22;0.73;;;14.30;88.70;;;;;;4208412;28;20036;-63
2022/06/23 02:18:34;;;;;;;3.33;0.90;;;14.20;88.50;;;;;;4206404;28;20031;-64
2022/06/23 02:21:02;;;;;;;1.95;1.10;;;14.10;88.80;;;;;;4208037;28;20040;-63
2022/06/23 02:23:32;;;;;;;1.30;0.80;;;14.10;88.70;;;;;;4205913;28;20559;-66
2022/06/23 02:25:37;;;;;;;3.28;1.05;;;14.10;89.40;;;;;;4202200;28;20516;-64
2022/06/23 02:27:48;;;;;;;1.97;1.17;;;14.00;89.30;;;;;;4172951;28;20029;-64
2022/06/23 02:30:17;;;;;;;3.53;1.03;;;14.00;89.70;;;;;;4174074;28;20766;-66
2022/06/23 02:32:34;;;;;;;4.00;0.90;;;14.00;89.80;;;;;;4167426;28;20044;-65
2022/06/23 02:34:44;;;;;;;1.63;1.00;;;14.00;90.00;;;;;;4172710;28;20044;-64
2022/06/23 02:37:05;;;;;;;7.53;1.30;;;14.00;90.00;;;;;;4173764;28;20107;-65
2022/06/23 02:39:20;;;;;;;5.50;0.98;;;14.00;90.00;;;;;;4172529;28;20870;-64
2022/06/23 02:41:26;;;;;;;5.10;1.43;;;14.10;89.90;;;;;;4185376;28;20112;-66
2022/06/23 02:43:38;;;;;;;2.97;1.00;;;14.10;89.80;;;;;;4190014;28;20484;-67
2022/06/23 02:46:06;;;;;;;1.50;1.27;;;14.20;89.90;;;;;;4190496;28;20305;-64
2022/06/23 02:48:21;;;;;;;1.50;1.10;;;14.30;89.80;;;;;;4189399;28;20037;-68
2022/06/23 02:50:47;;;;;;;1.97;1.00;;;14.40;89.90;;;;;;4191014;28;20028;-70
2022/06/23 02:52:58;;;;;;;3.73;1.40;;;14.40;89.70;;;;;;4189518;28;20631;-67
2022/06/23 02:55:02;;;;;;;5.17;1.30;;;14.50;88.90;;;;;;4198720;28;20446;-65
2022/06/23 02:57:38;;;;;;;2.30;1.27;;;14.60;88.80;;;;;;4205963;28;20028;-64
2022/06/23 03:00:01;;;;;;;0.90;0.70;;;14.70;88.90;;;;;;4204524;28;20839;-65
2022/06/23 03:02:08;;;;;;;1.20;0.80;;;14.70;88.50;;;;;;4205812;28;20113;-64
2022/06/23 03:04:23;;;;;;;2.97;1.00;;;14.60;88.50;;;;;;4207080;28;20036;-65
2022/06/23 03:06:28;;;;;;;4.20;1.03;;;14.70;88.30;;;;;;4206241;28;20035;-69
2022/06/23 03:08:47;;;;;;;2.37;0.90;;;14.80;88.30;;;;;;4205349;28;20036;-63
2022/06/23 03:10:58;;;;;;;1.67;0.82;;;15.00;87.70;;;;;;4189237;28;20044;-63
2022/06/23 03:13:08;;;;;;;3.42;1.30;;;15.20;87.20;;;;;;4190623;28;20029;-67
2022/06/23 03:15:13;;;;;;;1.55;1.00;;;15.30;86.90;;;;;;4189473;28;20033;-64
2022/06/23 03:17:20;;;;;;;5.93;1.17;;;15.40;86.50;;;;;;4190870;28;20070;-63
2022/06/23 03:19:36;;;;;;;2.38;0.75;;;15.40;86.50;;;;;;4200229;28;20056;-67
2022/06/23 03:21:48;;;;;;;3.17;1.10;;;15.40;86.60;;;;;;4210716;28;20032;-66
2022/06/23 03:23:58;;;;;;;1.95;0.80;;;15.30;86.70;;;;;;4209669;28;20392;-63
2022/06/23 03:26:04;;;;;;;8.07;1.50;;;15.40;86.80;;;;;;4210034;28;20786;-65
2022/06/23 03:28:17;;;;;;;1.75;0.80;;;15.40;86.90;;;;;;4209336;28;20027;-66
2022/06/23 03:30:27;;;;;;;3.17;1.15;;;15.40;86.90;;;;;;4210526;28;20447;-63
2022/06/23 03:32:31;;;;;;;2.55;0.90;;;15.30;86.90;;;;;;4208979;28;20491;-66
2022/06/23 03:34:42;;;;;;;1.92;0.75;;;15.30;86.80;;;;;;4210455;28;20040;-64
2022/06/23 03:36:58;;;;;;;4.20;1.08;;;15.20;86.70;;;;;;4206960;28;20089;-64
2022/06/23 03:41:50;;;;;;;6.85;1.10;;;15.10;87.40;;;;;;4194153;28;20193;-66
2022/06/23 03:43:58;;;;;;;4.78;1.25;;;15.10;87.40;;;;;;4194314;28;20481;-67
2022/06/23 03:46:17;;;;;;;3.85;0.90;;;15.00;87.30;;;;;;4195645;28;20040;-63
2022/06/23 03:48:31;;;;;;;1.42;0.90;;;15.10;87.30;;;;;;4192641;28;20036;-63
2022/06/23 03:50:39;;;;;;;2.15;1.20;;;15.10;87.30;;;;;;4192428;28;20078;-68
2022/06/23 03:52:59;;;;;;;4.10;1.17;;;15.00;87.20;;;;;;4192433;28;20435;-66
2022/06/23 03:55:24;;;;;;;2.03;1.00;;;15.00;87.60;;;;;;4192549;28;20020;-69
2022/06/23 03:57:35;;;;;;;2.38;0.82;;;14.90;87.60;;;;;;4191647;28;20074;-63
2022/06/23 03:59:50;;;;;;;2.90;1.05;;;14.90;87.90;;;;;;4191936;28;20130;-63
2022/06/23 04:02:25;;;;;;;7.82;1.70;;;14.80;88.30;;;;;;4206596;28;20056;-63
2022/06/23 04:05:00;;;;;;;4.30;1.10;;;14.80;88.50;;;;;;4183594;28;20040;-65
2022/06/23 04:07:23;;;;;;;4.47;1.33;;;14.90;89.10;;;;;;4189727;28;20028;-64
2022/06/23 04:09:33;;;;;;;2.58;1.98;;;15.00;88.60;;;;;;4193006;28;20037;-63
2022/06/23 04:12:18;;;;;;;1.10;0.98;;;15.10;88.60;;;;;;4191988;28;20036;-64
2022/06/23 04:14:53;;;;;;;3.50;1.20;;;15.00;88.80;;;;;;4191992;28;20093;-66
2022/06/23 04:17:10;;;;;;;2.92;1.10;;;15.00;88.70;;;;;;4192741;28;20097;-69
2022/06/23 04:19:18;;;;;;;4.95;1.30;;;14.90;88.50;;;;;;4191498;28;20495;-64
2022/06/23 04:21:24;;;;;;;3.95;1.15;;;15.00;88.40;;;;;;4197040;28;20024;-63
2022/06/23 04:23:30;;;;;;;1.67;1.30;;;15.10;88.30;;;;;;4207859;28;20032;-65
2022/06/23 04:26:04;;;;;;;3.13;1.80;;;15.20;88.20;;;;;;4209343;28;20089;-64
2022/06/23 04:28:05;;;;;;;3.50;1.10;;;15.30;88.20;;;;;;4208032;28;20541;-64
2022/06/23 04:30:17;;;;;;;5.53;1.50;;;15.40;87.60;;;;;;4207621;28;20066;-63
2022/06/23 04:32:25;;;;;;;7.00;1.10;;;15.50;87.40;;;;;;4202791;28;20036;-63
2022/06/23 04:34:31;;;;;;;4.63;1.10;;;15.60;87.20;;;;;;4183370;28;20593;-64
2022/06/23 04:36:41;;;;;;;8.25;1.15;;;15.70;86.90;;;;;;4207965;28;20032;-68
2022/06/23 04:38:50;;;;;;;2.20;1.20;;;15.90;86.80;;;;;;4209193;28;20508;-69
2022/06/23 04:40:55;;;;;;;4.22;0.90;;;16.00;86.50;;;;;;4207653;28;20097;-64
2022/06/23 04:43:20;;;;;;;4.10;1.15;;;16.10;86.20;;;;;;4206361;28;20434;-67
2022/06/23 04:45:33;;;;;;;4.38;1.13;;;16.10;86.00;;;;;;4174934;28;20048;-68
2022/06/23 04:47:34;;;;;;;2.20;0.93;;;16.30;85.80;;;;;;4183833;28;20126;-63
2022/06/23 04:49:41;;;;;;;3.00;1.05;;;16.30;85.30;;;;;;4190678;28;20497;-62
2022/06/23 04:51:51;;;;;;;7.80;2.55;;;16.40;85.00;;;;;;4192444;28;20090;-63
2022/06/23 04:53:58;;;;;;;5.25;1.45;;;16.50;84.70;;;;;;4193231;28;20102;-64
2022/06/23 04:56:13;;;;;;;2.55;1.15;;;16.60;84.40;;;;;;4208767;28;20044;-67
2022/06/23 04:58:22;;;;;;;4.20;1.00;;;16.60;84.30;;;;;;4205975;28;20081;-65
2022/06/23 05:00:48;;;;;;;3.33;1.23;;;16.70;83.90;;;;;;4198066;28;20069;-64
2022/06/23 05:02:54;;;;;;;5.10;1.15;;;16.70;83.90;;;;;;4174218;28;20049;-66
2022/06/23 05:05:14;;;;;;;2.75;0.70;;;16.80;83.80;;;;;;4174746;28;20037;-65
2022/06/23 05:07:44;;;;;;;4.38;1.17;;;16.90;83.80;;;;;;4173923;28;20493;-63
2022/06/23 05:09:45;;;;;;;7.03;0.90;;;17.00;83.30;;;;;;4157197;28;20045;-63
2022/06/23 05:11:59;;;;;;;2.85;1.20;;;17.10;83.30;;;;;;4173807;28;20090;-62
2022/06/23 05:14:06;;;;;;;2.97;1.00;;;17.40;83.40;;;;;;4175414;28;20027;-64
2022/06/23 05:16:11;;;;;;;2.95;1.00;;;17.50;83.00;;;;;;4175047;28;20517;-68
2022/06/23 05:18:21;;;;;;;6.25;1.10;;;17.70;82.80;;;;;;4176143;28;20033;-63
2022/06/23 05:20:40;;;;;;;3.13;1.00;;;17.90;82.40;;;;;;4174071;28;20075;-65
2022/06/23 05:22:46;;;;;;;2.90;1.00;;;18.20;81.60;;;;;;4175473;28;20086;-66
2022/06/23 05:24:48;;;;;;;2.00;1.08;;;18.30;81.50;;;;;;4173683;28;20114;-64
2022/06/23 05:26:59;;;;;;;5.20;1.05;;;18.50;81.40;;;;;;4174730;28;20040;-66
2022/06/23 05:29:21;;;;;;;5.68;1.30;;;18.70;80.90;;;;;;4173204;28;20029;-64
2022/06/23 05:31:36;;;;;;;14.20;1.42;;;18.80;80.40;;;;;;4174588;28;20370;-67
2022/06/23 05:33:45;;;;;;;9.50;1.40;;;18.70;80.70;;;;;;4174121;28;20486;-63
2022/06/23 05:35:53;;;;;;;7.75;1.40;;;18.90;80.70;;;;;;4174869;28;20481;-65
2022/06/23 05:38:05;;;;;;;3.67;1.30;;;19.00;80.30;;;;;;4173126;28;20473;-66
2022/06/23 05:40:25;;;;;;;3.42;1.25;;;19.10;80.10;;;;;;4174648;28;20822;-63
2022/06/23 05:42:29;;;;;;;5.18;1.50;;;19.20;80.60;;;;;;4172931;28;20159;-66
2022/06/23 05:44:34;;;;;;;11.98;1.80;;;19.50;79.60;;;;;;4174608;28;20033;-64
2022/06/23 05:46:40;;;;;;;6.78;1.45;;;19.70;79.40;;;;;;4173586;28;20079;-65
2022/06/23 05:48:43;;;;;;;5.97;1.90;;;19.90;78.70;;;;;;4173957;28;20020;-67
2022/06/23 05:51:12;;;;;;;2.95;1.70;;;19.90;78.50;;;;;;4172922;28;20792;-66
2022/06/23 05:53:25;;;;;;;7.20;2.42;;;19.70;78.00;;;;;;4174364;28;20025;-65
2022/06/23 05:55:45;;;;;;;6.47;2.00;;;19.80;78.50;;;;;;4172737;28;20033;-63
2022/06/23 05:57:53;;;;;;;8.07;2.07;;;19.80;78.20;;;;;;4174225;28;20549;-66
2022/06/23 06:00:14;;;;;;;14.65;3.05;;;19.80;78.40;;;;;;4173346;28;20290;-63
2022/06/23 06:02:32;;;;;;;12.88;2.40;;;19.70;79.00;;;;;;4173803;28;20045;-64
2022/06/23 06:04:48;;;;;;;18.65;3.28;;;19.90;79.20;;;;;;4173346;28;20041;-67
2022/06/23 06:06:49;;;;;;;9.80;2.05;;;20.10;78.70;;;;;;4173589;28;20055;-63
2022/06/23 06:11:14;;;;;;;6.85;1.38;;;20.00;78.10;;;;;;4173410;28;20102;-62
2022/06/23 06:13:22;;;;;;;12.48;1.58;;;19.80;78.30;;;;;;4173595;28;20070;-64
2022/06/23 06:15:27;;;;;;;8.35;1.90;;;19.70;78.70;;;;;;4173594;28;20363;-66
2022/06/23 06:17:32;;;;;;;16.60;2.53;;;19.50;79.20;;;;;;4188502;28;20040;-66
2022/06/23 06:19:34;;;;;;;20.92;2.90;;;19.40;79.50;;;;;;4173740;28;20025;-67
2022/06/23 06:21:35;;;;;;;11.63;2.25;;;19.40;79.70;;;;;;4172430;28;20114;-64
2022/06/23 06:23:58;;;;;;;20.15;2.85;;;19.50;79.70;;;;;;4174214;28;20032;-64
2022/06/23 06:25:59;;;;;;;13.68;2.30;;;19.50;80.00;;;;;;4173031;28;20021;-65
2022/06/23 06:28:13;;;;;;;14.55;3.60;;;19.50;79.40;;;;;;4173723;28;20106;-66
2022/06/23 06:30:19;;;;;;;19.60;3.10;;;19.60;79.30;;;;;;4173241;28;20048;-66
2022/06/23 06:32:33;;;;;;;20.05;3.35;;;19.70;79.30;;;;;;4173777;28;20075;-67
2022/06/23 06:34:44;;;;;;;21.25;4.55;;;19.70;79.50;;;;;;4173091;28;20021;-64
2022/06/23 06:36:48;;;;;;;15.90;3.33;;;19.70;80.00;;;;;;4173666;28;20041;-67
2022/06/23 06:38:49;;;;;;;29.13;3.17;;;19.70;79.50;;;;;;4172529;28;20025;-64
2022/06/23 06:40:56;;;;;;;23.70;4.20;;;19.50;79.80;;;;;;4173418;28;20563;-65
2022/06/23 06:43:06;;;;;;;23.10;3.30;;;19.40;80.20;;;;;;4172728;28;20036;-65
2022/06/23 06:45:20;;;;;;;7.97;3.00;;;19.40;80.40;;;;;;4173940;28;20102;-64
2022/06/23 06:47:25;;;;;;;27.85;4.60;;;19.40;80.00;;;;;;4173452;28;20037;-67
2022/06/23 06:49:31;;;;;;;18.45;4.22;;;19.60;79.60;;;;;;4174312;28;20090;-62
2022/06/23 06:51:32;;;;;;;14.95;2.88;;;19.90;79.30;;;;;;4172516;28;20138;-62
2022/06/23 06:53:46;;;;;;;14.32;3.58;;;20.20;78.80;;;;;;4173312;28;20476;-63
2022/06/23 06:56:11;;;;;;;8.15;3.00;;;20.20;78.40;;;;;;4172728;28;20067;-66
2022/06/23 06:58:16;;;;;;;18.02;2.75;;;20.30;78.30;;;;;;4173183;28;20037;-69
2022/06/23 07:00:41;;;;;;;9.95;1.92;;;20.10;78.40;;;;;;4172163;28;20053;-71
2022/06/23 07:02:52;;;;;;;20.23;2.70;;;20.00;78.30;;;;;;4167210;28;20114;-65
2022/06/23 07:05:02;;;;;;;10.73;2.13;;;20.00;78.60;;;;;;4172713;28;20041;-63
2022/06/23 07:07:06;;;;;;;7.82;1.45;;;20.20;78.00;;;;;;4173027;28;20041;-64
2022/06/23 07:09:37;;;;;;;10.27;2.25;;;20.60;77.60;;;;;;4172370;28;20401;-65
2022/06/23 07:12:08;;;;;;;7.72;1.92;;;21.20;76.20;;;;;;4172588;28;20063;-65
2022/06/23 07:14:33;;;;;;;14.45;2.33;;;21.10;75.70;;;;;;4173615;28;20078;-64
2022/06/23 07:16:43;;;;;;;9.20;2.22;;;21.20;76.00;;;;;;4173453;28;20041;-64
2022/06/23 07:18:48;;;;;;;;;;;21.80;75.30;;;;;;4174490;28;20025;-65
2022/06/23 07:21:27;;;;;;;5.03;1.20;;;22.10;74.40;;;;;;4172321;28;20347;-63
2022/06/23 07:23:36;;;;;;;3.35;1.23;;;22.20;73.70;;;;;;4173906;28;20044;-65
2022/06/23 07:25:45;;;;;;;4.75;1.25;;;21.90;74.80;;;;;;4172377;28;20045;-64
2022/06/23 07:27:46;;;;;;;4.10;1.35;;;21.80;75.10;;;;;;4172961;28;20456;-63
2022/06/23 07:30:24;;;;;;;6.93;1.10;;;21.60;75.70;;;;;;4188975;28;20045;-63
2022/06/23 07:32:31;;;;;;;4.03;1.10;;;21.50;76.00;;;;;;4173400;28;20562;-62
2022/06/23 07:34:41;;;;;;;9.85;1.20;;;21.60;76.30;;;;;;4186461;28;20045;-63
2022/06/23 07:37:10;;;;;;;3.63;1.17;;;22.20;75.70;;;;;;4173690;28;20037;-63
2022/06/23 07:39:20;;;;;;;3.03;1.20;;;22.90;74.40;;;;;;4172275;28;20087;-63
2022/06/23 07:41:52;;;;;;;3.55;1.10;;;23.20;73.40;;;;;;4173119;28;20044;-66
2022/06/23 07:44:18;;;;;;;4.47;1.20;;;23.10;73.60;;;;;;4172333;28;20106;-64
2022/06/23 07:46:19;;;;;;;4.60;1.20;;;23.30;73.20;;;;;;4172756;28;20508;-63
2022/06/23 07:48:20;;;;;;;6.63;1.35;;;23.60;73.60;;;;;;4171691;28;20032;-63
2022/06/23 07:50:22;;;;;;;7.03;1.30;;;23.60;72.70;;;;;;4172998;28;20430;-62
2022/06/23 07:52:23;;;;;;;4.80;0.95;;;23.30;72.50;;;;;;4180996;28;20037;-65
2022/06/23 07:54:25;;;;;;;1.42;0.98;;;23.20;72.40;;;;;;4188981;28;20472;-61
2022/06/23 07:56:30;;;;;;;1.00;0.90;;;23.00;72.10;;;;;;4188599;28;20571;-64
2022/06/23 07:58:36;;;;;;;0.75;0.75;;;23.00;71.80;;;;;;4189805;28;20056;-67
2022/06/23 08:00:42;;;;;;;3.08;0.70;;;23.00;71.00;;;;;;4188460;28;20655;-64
2022/06/23 08:02:47;;;;;;;2.63;0.77;;;22.90;71.10;;;;;;4190133;28;20091;-65
2022/06/23 08:04:54;;;;;;;1.67;1.02;;;23.00;71.10;;;;;;4190346;28;20471;-64
2022/06/23 08:06:59;;;;;;;1.65;0.60;;;23.10;70.40;;;;;;4192855;28;20036;-65
2022/06/23 08:09:15;;;;;;;2.63;0.60;;;23.20;70.70;;;;;;4191572;28;20032;-64
2022/06/23 08:13:40;;;;;;;3.72;0.60;;;23.10;69.70;;;;;;4191410;28;21444;-66
2022/06/23 08:18:26;;;;;;;2.88;0.93;;;22.80;69.50;;;;;;4191823;28;20507;-63
2022/06/23 08:20:33;;;;;;;3.00;0.68;;;23.00;69.30;;;;;;4192196;28;20041;-64
2022/06/23 08:22:39;;;;;;;1.23;0.90;;;23.30;69.00;;;;;;4191037;28;20086;-62
2022/06/23 08:24:44;;;;;;;1.38;0.75;;;23.50;68.60;;;;;;4192227;28;20078;-64
2022/06/23 08:26:55;;;;;;;1.17;0.50;;;23.50;68.30;;;;;;4191150;28;20077;-65
2022/06/23 08:29:01;;;;;;;2.35;0.60;;;23.30;67.90;;;;;;4191844;28;20041;-67
2022/06/23 08:31:04;;;;;;;1.05;0.80;;;23.10;68.70;;;;;;4190676;28;20070;-63
2022/06/23 08:33:05;;;;;;;2.13;0.65;;;23.00;68.60;;;;;;4191239;28;20094;-63
2022/06/23 08:35:27;;;;;;;5.15;0.60;;;23.20;68.80;;;;;;4190380;28;20045;-64
2022/06/23 08:37:35;;;;;;;3.88;0.70;;;23.40;68.10;;;;;;4192052;28;20874;-63
2022/06/23 08:40:00;;;;;;;1.63;0.77;;;23.50;67.90;;;;;;4191350;28;20056;-62
2022/06/23 08:42:23;;;;;;;1.58;0.38;;;23.60;67.50;;;;;;4191691;28;20032;-62
2022/06/23 08:44:40;;;;;;;2.10;0.70;;;23.70;67.50;;;;;;4191387;28;20044;-64
2022/06/23 08:46:54;;;;;;;6.32;1.23;;;23.70;67.90;;;;;;4191846;28;20872;-63
2022/06/23 08:49:22;;;;;;;2.08;0.55;;;24.10;67.30;;;;;;4191728;28;20114;-66
2022/06/23 08:51:35;;;;;;;4.20;0.73;;;24.30;64.90;;;;;;4191132;28;20086;-66
2022/06/23 08:53:58;;;;;;;3.72;1.00;;;24.30;65.10;;;;;;4191808;28;20078;-65
2022/06/23 08:55:59;;;;;;;2.20;0.80;;;24.60;64.60;;;;;;4190649;28;20012;-61
2022/06/23 08:58:23;;;;;;;2.78;0.52;;;24.80;65.50;;;;;;4191347;28;20070;-64
2022/06/23 09:00:37;;;;;;;2.65;0.77;;;25.20;64.90;;;;;;4191048;28;20532;-68
2022/06/23 09:02:56;;;;;;;1.05;0.70;;;25.40;65.20;;;;;;4191653;28;20155;-65
2022/06/23 09:05:23;;;;;;;0.80;0.50;;;25.80;64.70;;;;;;4190667;28;20093;-62
2022/06/23 09:07:58;;;;;;;0.82;0.60;;;26.00;64.40;;;;;;4191729;28;20432;-65
2022/06/23 09:10:20;;;;;;;1.05;0.50;;;26.20;63.80;;;;;;4190829;28;20534;-68
2022/06/23 09:12:46;;;;;;;1.17;0.57;;;25.70;63.60;;;;;;4191852;28;20052;-64
2022/06/23 09:14:47;;;;;;;1.90;0.80;;;24.90;65.10;;;;;;4191421;28;20597;-67
2022/06/23 09:17:09;;;;;;;2.05;0.90;;;24.90;65.90;;;;;;4191248;28;20382;-64
2022/06/23 09:19:48;;;;;;;1.73;1.30;;;25.00;65.80;;;;;;4191341;28;20048;-63
2022/06/23 09:22:12;;;;;;;8.68;2.83;;;25.30;66.10;;;;;;4188923;28;20146;-64
2022/06/23 09:24:28;;;;;;;2.95;1.25;;;25.50;65.50;;;;;;4190210;28;20122;-65
2022/06/23 09:27:05;;;;;;;1.77;0.63;;;25.70;65.40;;;;;;4184431;28;20856;-66
2022/06/23 09:29:17;;;;;;;2.75;0.73;;;25.90;64.20;;;;;;4168126;28;20099;-70
2022/06/23 09:31:39;;;;;;;2.05;0.93;;;25.90;64.80;;;;;;4173815;28;20124;-64
2022/06/23 09:33:40;;;;;;;2.17;0.63;;;25.90;64.70;;;;;;4175109;28;20033;-62
2022/06/23 09:35:50;;;;;;;2.63;0.70;;;25.70;64.50;;;;;;4173655;28;20504;-67
2022/06/23 09:37:51;;;;;;;;;;;25.70;62.00;;;;;;4175188;28;20074;-66
2022/06/23 09:40:15;;;;;;;1.27;0.52;;;25.60;60.80;;;;;;4173912;28;20050;-65
2022/06/23 09:43:04;;;;;;;7.95;0.90;;;25.50;59.80;;;;;;4155174;28;20118;-65
2022/06/23 09:45:23;;;;;;;4.00;0.90;;;25.20;59.30;;;;;;4173691;28;20028;-63
2022/06/23 09:47:36;;;;;;;1.40;0.60;;;25.20;61.90;;;;;;4172577;28;20075;-62
2022/06/23 09:50:07;;;;;;;3.05;1.27;;;25.30;62.20;;;;;;4173982;28;20270;-62
2022/06/23 09:52:23;;;;;;;;;;;25.60;60.90;;;;;;4155317;28;20040;-67
2022/06/23 09:54:36;;;;;;;1.77;0.57;;;25.60;60.20;;;;;;4174548;28;19904;-63
2022/06/23 09:57:00;;;;;;;2.97;0.73;;;25.60;61.60;;;;;;4173786;28;20067;-67
2022/06/23 09:59:25;;;;;;;2.53;0.55;;;25.30;62.00;;;;;;4174627;28;20075;-63
2022/06/23 10:01:48;;;;;;;1.10;0.82;;;25.10;62.10;;;;;;4173159;28;20048;-64
2022/06/23 10:04:04;;;;;;;2.97;0.40;;;25.20;61.60;;;;;;4174235;28;20029;-63
2022/06/23 10:06:08;;;;;;;2.65;0.68;;;25.30;61.20;;;;;;4173121;28;20091;-66
2022/06/23 10:08:29;;;;;;;2.35;0.85;;;25.40;60.60;;;;;;4174480;28;20083;-66
2022/06/23 10:10:47;;;;;;;2.15;0.63;;;25.20;60.30;;;;;;4165726;28;20547;-63
2022/06/23 10:13:01;;;;;;;0.90;0.50;;;25.20;60.60;;;;;;4173078;28;20886;-64
2022/06/23 10:15:24;;;;;;;2.00;0.60;;;25.40;60.60;;;;;;4172321;28;20468;-64
2022/06/23 10:17:46;;;;;;;3.30;0.57;;;25.50;60.10;;;;;;4173993;28;20045;-63
2022/06/23 10:20:06;;;;;;;2.28;0.60;;;25.60;61.00;;;;;;4173850;28;20436;-65
2022/06/23 10:22:35;;;;;;;2.55;0.98;;;25.50;60.10;;;;;;4172913;28;20033;-65
2022/06/23 10:25:08;;;;;;;0.95;0.40;;;25.30;61.00;;;;;;4174405;28;20458;-61
2022/06/23 10:27:34;;;;;;;1.85;0.55;;;25.30;61.10;;;;;;4170601;28;20045;-64
2022/06/23 10:29:50;;;;;;;2.42;0.60;;;25.40;60.30;;;;;;4172491;28;20041;-65
2022/06/23 10:32:15;;;;;;;0.80;0.60;;;25.40;59.60;;;;;;4172479;28;20033;-63
2022/06/23 10:34:34;;;;;;;2.55;0.68;;;25.40;59.60;;;;;;4173880;28;20439;-63
2022/06/23 10:36:54;;;;;;;16.73;1.93;;;25.10;59.90;;;;;;4173027;28;20037;-63
2022/06/23 10:39:10;;;;;;;12.88;1.67;;;24.90;60.60;;;;;;4172183;28;20355;-64
2022/06/23 10:41:42;;;;;;;10.95;1.55;;;24.70;61.30;;;;;;4173004;28;20040;-68
2022/06/23 10:44:06;;;;;;;5.05;1.10;;;24.60;61.10;;;;;;4171797;28;20498;-61
2022/06/23 10:46:21;;;;;;;2.65;0.43;;;24.70;61.30;;;;;;4173259;28;20091;-65
2022/06/23 10:48:43;;;;;;;0.88;0.52;;;25.00;61.50;;;;;;4172261;28;20127;-65
2022/06/23 10:51:02;;;;;;;5.53;1.00;;;24.90;60.90;;;;;;4173622;28;20096;-69
2022/06/23 10:53:32;;;;;;;1.75;0.50;;;24.80;61.60;;;;;;4172881;28;21210;-65
2022/06/23 10:55:36;;;;;;;1.40;0.70;;;25.00;60.60;;;;;;4174083;28;20476;-64
2022/06/23 10:58:14;;;;;;;2.70;0.80;;;25.10;61.10;;;;;;4172718;28;20083;-66
2022/06/23 11:00:23;;;;;;;1.73;0.70;;;25.10;60.20;;;;;;4173763;28;20029;-66
2022/06/23 11:02:49;;;;;;;2.30;0.70;;;25.30;60.00;;;;;;4172606;28;20061;-64
2022/06/23 11:04:58;;;;;;;2.17;0.90;;;25.40;57.70;;;;;;4173801;28;20029;-65
2022/06/23 11:07:21;;;;;;;2.40;0.65;;;25.30;58.80;;;;;;4172839;28;20513;-64
2022/06/23 11:09:52;;;;;;;0.43;0.30;;;25.30;57.60;;;;;;4173308;28;20098;-65
2022/06/23 11:12:23;;;;;;;0.65;0.30;;;25.00;58.00;;;;;;4173351;28;20045;-66
2022/06/23 11:14:33;;;;;;;1.20;0.88;;;25.00;57.40;;;;;;4172343;28;20021;-63
2022/06/23 11:16:47;;;;;;;0.65;0.38;;;25.00;57.50;;;;;;4172908;28;20041;-63
2022/06/23 11:19:07;;;;;;;1.33;0.50;;;25.10;57.50;;;;;;4172099;28;20049;-63
2022/06/23 11:21:38;;;;;;;1.77;0.40;;;25.10;57.70;;;;;;4173029;28;20032;-62
2022/06/23 11:24:06;;;;;;;2.13;0.50;;;25.20;57.30;;;;;;4172542;28;20029;-65
2022/06/23 11:26:31;;;;;;;4.63;0.45;;;25.20;56.90;;;;;;4173117;28;20049;-64
2022/06/23 11:28:43;;;;;;;4.28;0.60;;;25.30;58.00;;;;;;4172303;28;20083;-65
2022/06/23 11:31:02;;;;;;;0.45;0.40;;;25.50;58.50;;;;;;4173489;28;20095;-64
2022/06/23 11:33:25;;;;;;;1.23;0.40;;;25.50;58.30;;;;;;4171977;28;20473;-66
2022/06/23 11:36:10;;;;;;;0.70;0.47;;;25.50;58.40;;;;;;4172691;28;20143;-64
2022/06/23 11:38:20;;;;;;;1.48;0.38;;;25.40;58.70;;;;;;4173837;28;20501;-62
2022/06/23 11:40:30;;;;;;;1.95;0.70;;;25.40;59.10;;;;;;4173930;28;20555;-63
2022/06/23 11:42:44;;;;;;;;;;;25.50;59.30;;;;;;4177285;28;20037;-63
2022/06/23 11:45:01;;;;;;;0.73;0.43;;;25.50;59.00;;;;;;4174614;28;19958;-64
2022/06/23 11:47:08;;;;;;;6.90;1.58;;;25.30;59.40;;;;;;4176773;28;20029;-61
2022/06/23 11:49:38;;;;;;;5.13;1.25;;;25.30;58.80;;;;;;4175473;28;20029;-62
2022/06/23 11:51:42;;;;;;;2.05;0.50;;;25.00;58.50;;;;;;4176963;28;20083;-63